Time;durP1;ratioP1;P1;durP2;ratioP2;P2;SDS_P1;SDS_P2;PMS_P1;PMS_P2;Temp;Humidity;BMP_temperature;BMP_pressure;BME280_temperature;BME280_humidity;BME280_pressure;Samples;Min_cycle;Max_cycle;Signal;HPM_P1;HPM_P2
2022/08/10 00:00:53;;;;;;;;;;;;;;;12.01;100.00;93739.78;2120849;27;19918;-70
2022/08/10 00:01:53;;;;;;;;;;;;;;;12.04;100.00;93742.41;2123560;27;19998;-71
2022/08/10 00:02:56;;;;;;;;;;;;;;;12.08;100.00;93745.78;2123765;27;20289;-70
2022/08/10 00:03:57;;;;;;;;;;;;;;;12.06;100.00;93742.75;2123712;27;19926;-73
2022/08/10 00:04:57;;;;;;;;;;;;;;;12.07;100.00;93744.28;2122844;27;19918;-71
2022/08/10 00:05:58;;;;;;;;;;;;;;;11.92;100.00;93744.91;2123683;27;20365;-71
2022/08/10 00:06:59;;;;;;;;;;;;;;;12.03;100.00;93745.50;2123550;27;19916;-71
2022/08/10 00:08:00;;;;;;;;;;;;;;;12.08;100.00;93734.31;2123604;27;19931;-71
2022/08/10 00:09:01;;;;;;;;;;;;;;;12.18;100.00;93743.34;2123804;27;19916;-70
2022/08/10 00:10:02;;;;;;;;;;;;;;;12.06;100.00;93742.75;2122900;27;20516;-71
2022/08/10 00:11:03;;;;;;;;;;;;;;;12.06;100.00;93744.69;2123709;27;20030;-70
2022/08/10 00:12:04;;;;;;;;;;;;;;;12.16;100.00;93742.97;2123521;27;19927;-73
2022/08/10 00:13:05;;;;;;;;;;;;;;;12.06;100.00;93742.75;2123589;27;19951;-71
2022/08/10 00:14:05;;;;;;;;;;;;;;;11.97;100.00;93736.41;2122398;27;19919;-71
2022/08/10 00:15:08;;;;;;;;;;;;;;;12.03;100.00;93746.25;2122857;27;20342;-70
2022/08/10 00:16:08;;;;;;;;;;;;;;;12.09;100.00;93741.94;2123046;27;20010;-70
2022/08/10 00:17:09;;;;;;;;;;;;;;;12.07;100.00;93738.13;2123745;27;19919;-70
2022/08/10 00:18:10;;;;;;;;;;;;;;;12.07;100.00;93738.94;2123735;27;19916;-73
2022/08/10 00:19:11;;;;;;;;;;;;;;;12.00;100.00;93739.03;2123886;27;19915;-72
2022/08/10 00:20:12;;;;;;;;;;;;;;;11.91;100.00;93738.06;2123787;27;19915;-70
2022/08/10 00:21:13;;;;;;;;;;;;;;;11.83;100.00;93743.53;2123174;27;20005;-70
2022/08/10 00:22:14;;;;;;;;;;;;;;;11.88;100.00;93739.63;2122923;27;19945;-71
2022/08/10 00:23:14;;;;;;;;;;;;;;;11.75;100.00;93739.41;2122808;27;19912;-71
2022/08/10 00:24:15;;;;;;;;;;;;;;;11.88;100.00;93736.94;2122756;27;19915;-71
2022/08/10 00:25:17;;;;;;;;;;;;;;;11.84;100.00;93744.28;2122883;27;20426;-71
2022/08/10 00:26:18;;;;;;;;;;;;;;;11.95;100.00;93742.19;2122724;27;20341;-69
2022/08/10 00:27:19;;;;;;;;;;;;;;;11.80;100.00;93741.63;2123602;27;20002;-70
2022/08/10 00:28:21;;;;;;;;;;;;;;;11.86;100.00;93744.63;2123474;27;20337;-70
2022/08/10 00:29:22;;;;;;;;;;;;;;;11.86;100.00;93733.94;2123486;27;19975;-70
2022/08/10 00:30:23;;;;;;;;;;;;;;;11.90;100.00;93739.22;2123383;27;19911;-70
2022/08/10 00:31:24;;;;;;;;;;;;;;;11.91;100.00;93736.13;2122798;27;19951;-70
2022/08/10 00:32:25;;;;;;;;;;;;;;;11.92;100.00;93737.63;2123489;27;19931;-73
2022/08/10 00:33:26;;;;;;;;;;;;;;;12.14;100.00;93735.34;2123374;27;19915;-70
2022/08/10 00:34:27;;;;;;;;;;;;;;;12.14;100.00;93745.31;2123564;27;19915;-70
2022/08/10 00:35:29;;;;;;;;;;;;;;;12.01;100.00;93737.88;2122693;27;20043;-71
2022/08/10 00:36:30;;;;;;;;;;;;;;;11.94;100.00;93737.22;2112340;28;19947;-73
2022/08/10 00:37:30;;;;;;;;;;;;;;;11.85;100.00;93745.78;2120956;27;20338;-70
2022/08/10 00:38:33;;;;;;;;;;;;;;;11.81;100.00;93737.03;2123195;27;19911;-71
2022/08/10 00:39:35;;;;;;;;;;;;;;;11.79;100.00;93739.34;2123463;27;19951;-71
2022/08/10 00:40:36;;;;;;;;;;;;;;;11.81;100.00;93739.72;2123392;27;19911;-72
2022/08/10 00:41:37;;;;;;;;;;;;;;;11.89;100.00;93740.38;2122624;27;19911;-72
2022/08/10 00:42:38;;;;;;;;;;;;;;;11.85;100.00;93740.44;2123402;27;19911;-70
2022/08/10 00:43:38;;;;;;;;;;;;;;;11.88;100.00;93733.50;2123200;27;19930;-71
2022/08/10 00:44:48;;;;;;;;;;;;;;;11.78;100.00;93745.88;2123359;27;19915;-72
2022/08/10 00:45:50;;;;;;;;;;;;;;;11.76;100.00;93737.50;2119875;27;20858;-74
2022/08/10 00:46:51;;;;;;;;;;;;;;;11.77;100.00;93739.03;2122788;27;19911;-71
2022/08/10 00:47:51;;;;;;;;;;;;;;;11.77;100.00;93741.69;2123317;27;19975;-71
2022/08/10 00:48:52;;;;;;;;;;;;;;;11.71;100.00;93746.00;2123121;27;19919;-74
2022/08/10 00:49:54;;;;;;;;;;;;;;;11.71;100.00;93738.72;2123230;27;19911;-72
2022/08/10 00:50:56;;;;;;;;;;;;;;;11.68;100.00;93733.44;2123299;27;19916;-70
2022/08/10 00:51:57;;;;;;;;;;;;;;;11.74;100.00;93731.78;2122106;27;19918;-71
2022/08/10 00:52:58;;;;;;;;;;;;;;;11.65;100.00;93729.63;2122673;27;20028;-71
2022/08/10 00:53:59;;;;;;;;;;;;;;;11.66;100.00;93733.06;2122819;27;19975;-73
2022/08/10 00:55:01;;;;;;;;;;;;;;;11.52;100.00;93726.78;2122348;27;20396;-71
2022/08/10 00:56:02;;;;;;;;;;;;;;;11.58;100.00;93729.75;2123220;27;19915;-73
2022/08/10 00:57:04;;;;;;;;;;;;;;;11.46;100.00;93728.41;2122742;27;19950;-70
2022/08/10 00:58:06;;;;;;;;;;;;;;;11.46;100.00;93731.09;2122042;27;20010;-70
2022/08/10 00:59:07;;;;;;;;;;;;;;;11.57;100.00;93731.66;2123106;27;19911;-69
2022/08/10 01:00:08;;;;;;;;;;;;;;;11.63;100.00;93729.28;2123212;27;20495;-70
2022/08/10 01:01:09;;;;;;;;;;;;;;;11.42;100.00;93722.34;2123151;27;19919;-71
2022/08/10 01:02:11;;;;;;;;;;;;;;;11.46;100.00;93731.09;2122505;27;20381;-71
2022/08/10 01:03:13;;;;;;;;;;;;;;;11.54;100.00;93735.13;2122110;27;19915;-72
2022/08/10 01:04:13;;;;;;;;;;;;;;;11.51;100.00;93737.91;2122348;27;19918;-71
2022/08/10 01:05:14;;;;;;;;;;;;;;;11.48;100.00;93733.34;2118440;27;20573;-71
2022/08/10 01:06:35;;;;;;;;;;;;;;;11.43;100.00;93723.09;2123182;27;20361;-70
2022/08/10 01:07:55;;;;;;;;;;;;;;;11.40;100.00;93727.34;2122755;27;19918;-72
2022/08/10 01:09:09;;;;;;;;;;;;;;;11.40;100.00;93727.34;2122203;27;19919;-73
2022/08/10 01:10:39;;;;;;;;;;;;;;;11.41;100.00;93725.41;2122658;27;20405;-70
2022/08/10 01:12:05;;;;;;;;;;;;;;;11.48;100.00;93725.31;2122655;27;19954;-70
2022/08/10 01:13:06;;;;;;;;;;;;;;;11.37;100.00;93720.13;2122019;27;19915;-70
2022/08/10 01:14:11;;;;;;;;;;;;;;;11.25;100.00;93720.69;2121790;27;20238;-69
2022/08/10 01:15:35;;;;;;;;;;;;;;;11.23;100.00;93715.72;2123058;27;20051;-70
2022/08/10 01:16:40;;;;;;;;;;;;;;;11.21;100.00;93722.66;2122008;27;19915;-71
2022/08/10 01:17:49;;;;;;;;;;;;;;;11.13;100.00;93722.00;2122454;27;20021;-74
2022/08/10 01:18:54;;;;;;;;;;;;;;;11.24;100.00;93716.50;2118466;27;19911;-72
2022/08/10 01:20:13;;;;;;;;;;;;;;;11.23;100.00;93718.41;2122854;27;19911;-72
2022/08/10 01:21:24;;;;;;;;;;;;;;;11.37;100.00;93714.78;2118844;27;19915;-70
2022/08/10 01:22:31;;;;;;;;;;;;;;;11.22;100.00;93711.53;2123157;27;20364;-72
2022/08/10 01:23:50;;;;;;;;;;;;;;;11.15;100.00;93716.22;2123042;27;20391;-69
2022/08/10 01:25:02;;;;;;;;;;;;;;;11.21;100.00;93717.31;2120665;27;19911;-70
2022/08/10 01:26:22;;;;;;;;;;;;;;;11.27;100.00;93713.00;2123065;27;19915;-72
2022/08/10 01:27:22;;;;;;;;;;;;;;;11.25;100.00;93721.44;2120149;27;20295;-71
2022/08/10 01:28:42;;;;;;;;;;;;;;;11.12;100.00;93730.44;2123025;27;19911;-70
2022/08/10 01:29:49;;;;;;;;;;;;;;;11.16;100.00;93723.88;2122765;27;20404;-71
2022/08/10 01:30:52;;;;;;;;;;;;;;;11.14;100.00;93714.72;2119586;27;20490;-70
2022/08/10 01:31:55;;;;;;;;;;;;;;;11.05;100.00;93715.97;2123032;27;19911;-70
2022/08/10 01:32:56;;;;;;;;;;;;;;;11.07;100.00;93715.59;2123028;27;19915;-71
2022/08/10 01:34:01;;;;;;;;;;;;;;;11.12;100.00;93717.06;2122987;27;19923;-70
2022/08/10 01:35:11;;;;;;;;;;;;;;;11.15;100.00;93718.91;2122693;27;20246;-71
2022/08/10 01:36:15;;;;;;;;;;;;;;;11.06;100.00;93712.16;2122481;27;19977;-72
2022/08/10 01:37:19;;;;;;;;;;;;;;;11.09;100.00;93713.25;2119025;27;19918;-70
2022/08/10 01:38:25;;;;;;;;;;;;;;;10.98;100.00;93710.00;2122086;27;19917;-70
2022/08/10 01:39:29;;;;;;;;;;;;;;;11.05;100.00;93715.22;2122402;27;19911;-70
2022/08/10 01:40:31;;;;;;;;;;;;;;;11.01;100.00;93712.59;2122717;27;19949;-70
2022/08/10 01:41:37;;;;;;;;;;;;;;;10.98;100.00;93712.66;2122249;27;19915;-70
2022/08/10 01:42:39;;;;;;;;;;;;;;;11.02;100.00;93716.81;2122961;27;19911;-70
2022/08/10 01:43:41;;;;;;;;;;;;;;;10.99;100.00;93709.56;2122965;27;19915;-69
2022/08/10 01:44:45;;;;;;;;;;;;;;;11.10;100.00;93712.09;2122936;27;19911;-72
2022/08/10 01:45:51;;;;;;;;;;;;;;;10.91;100.00;93707.41;2118670;27;19987;-70
2022/08/10 01:46:55;;;;;;;;;;;;;;;10.91;100.00;93710.81;2122890;27;19938;-71
2022/08/10 01:49:17;;;;;;;;;;;;;;;10.96;100.00;93704.28;2117974;27;19915;-71
2022/08/10 01:50:27;;;;;;;;;;;;;;;11.09;100.00;93716.69;2117802;27;20276;-72
2022/08/10 01:52:03;;;;;;;;;;;;;;;11.00;100.00;93716.44;2119976;27;19964;-69
2022/08/10 01:53:06;;;;;;;;;;;;;;;11.09;100.00;93713.25;2096375;28;20377;-70
2022/08/10 01:54:19;;;;;;;;;;;;;;;11.04;100.00;93714.47;2096407;28;20007;-70
2022/08/10 01:55:20;;;;;;;;;;;;;;;10.99;100.00;93712.25;2102892;28;19922;-70
2022/08/10 01:56:23;;;;;;;;;;;;;;;10.95;100.00;93711.53;2122764;27;20348;-72
2022/08/10 01:57:26;;;;;;;;;;;;;;;10.87;100.00;93714.72;2121477;27;20003;-71
2022/08/10 01:58:28;;;;;;;;;;;;;;;10.86;100.00;93716.63;2122372;27;19915;-70
2022/08/10 01:59:33;;;;;;;;;;;;;;;10.92;100.00;93719.59;2123061;27;19984;-70
2022/08/10 02:00:36;;;;;;;;;;;;;;;10.88;100.00;93714.31;2122921;27;20026;-72
2022/08/10 02:01:39;;;;;;;;;;;;;;;10.95;100.00;93718.81;2122991;27;19918;-70
2022/08/10 02:02:41;;;;;;;;;;;;;;;10.88;100.00;93718.91;2122067;27;19916;-71
2022/08/10 02:03:43;;;;;;;;;;;;;;;10.76;100.00;93714.88;2122887;27;19934;-71
2022/08/10 02:04:46;;;;;;;;;;;;;;;10.81;100.00;93711.75;2122936;27;20264;-70
2022/08/10 02:05:51;;;;;;;;;;;;;;;10.79;100.00;93714.03;2118441;27;19916;-70
2022/08/10 02:06:52;;;;;;;;;;;;;;;10.73;100.00;93707.63;2122710;27;19915;-71
2022/08/10 02:07:54;;;;;;;;;;;;;;;10.72;100.00;93716.81;2122712;27;19912;-74
2022/08/10 02:08:56;;;;;;;;;;;;;;;10.79;100.00;93716.72;2122098;27;19972;-71
2022/08/10 02:09:59;;;;;;;;;;;;;;;10.80;100.00;93710.97;2122082;27;19925;-73
2022/08/10 02:11:01;;;;;;;;;;;;;;;10.80;100.00;93713.66;2114000;28;19916;-70
2022/08/10 02:12:05;;;;;;;;;;;;;;;10.81;100.00;93723.19;2122090;27;20429;-70
2022/08/10 02:13:07;;;;;;;;;;;;;;;10.83;100.00;93706.72;2122699;27;20010;-71
2022/08/10 02:14:09;;;;;;;;;;;;;;;10.71;100.00;93713.41;2121795;27;19915;-70
2022/08/10 02:15:14;;;;;;;;;;;;;;;10.72;100.00;93712.22;2122687;27;20416;-72
2022/08/10 02:16:15;;;;;;;;;;;;;;;10.73;100.00;93713.75;2118492;27;19918;-70
2022/08/10 02:17:18;;;;;;;;;;;;;;;10.72;100.00;93711.47;2122775;27;19911;-72
2022/08/10 02:18:20;;;;;;;;;;;;;;;10.79;100.00;93714.78;2122783;27;19916;-71
2022/08/10 02:19:22;;;;;;;;;;;;;;;10.78;100.00;93712.53;2122004;27;19915;-70
2022/08/10 02:20:24;;;;;;;;;;;;;;;10.89;100.00;93707.81;2122688;27;20348;-70
2022/08/10 02:21:28;;;;;;;;;;;;;;;10.87;100.00;93717.38;2122512;27;19911;-70
2022/08/10 02:22:29;;;;;;;;;;;;;;;10.92;100.00;93724.97;2122782;27;19916;-73
2022/08/10 02:23:31;;;;;;;;;;;;;;;10.86;100.00;93719.31;2122810;27;20333;-71
2022/08/10 02:24:33;;;;;;;;;;;;;;;10.93;100.00;93721.91;2122623;27;19922;-71
2022/08/10 02:25:34;;;;;;;;;;;;;;;10.91;100.00;93716.19;2118258;27;19916;-70
2022/08/10 02:26:35;;;;;;;;;;;;;;;10.77;100.00;93714.44;2122667;27;19962;-70
2022/08/10 02:27:36;;;;;;;;;;;;;;;10.81;100.00;93715.16;2122714;27;19911;-70
2022/08/10 02:28:38;;;;;;;;;;;;;;;10.91;100.00;93720.78;2122657;27;20010;-70
2022/08/10 02:29:40;;;;;;;;;;;;;;;10.94;100.00;93712.72;2122675;27;20007;-71
2022/08/10 02:30:43;;;;;;;;;;;;;;;10.89;100.00;93710.50;2122114;27;19915;-70
2022/08/10 02:31:44;;;;;;;;;;;;;;;10.93;100.00;93713.88;2122608;27;19915;-70
2022/08/10 02:32:46;;;;;;;;;;;;;;;10.99;100.00;93720.28;2122767;27;19911;-72
2022/08/10 02:33:49;;;;;;;;;;;;;;;10.99;100.00;93717.59;2122286;28;19915;-74
2022/08/10 02:34:51;;;;;;;;;;;;;;;11.03;100.00;93712.97;2122278;28;19918;-70
2022/08/10 02:35:53;;;;;;;;;;;;;;;11.05;100.00;93712.56;2122195;27;20338;-73
2022/08/10 02:37:09;;;;;;;;;;;;;;;11.04;100.00;93706.44;2122574;27;19911;-70
2022/08/10 02:38:11;;;;;;;;;;;;;;;11.05;100.00;93713.31;2122671;27;19915;-70
2022/08/10 02:39:14;;;;;;;;;;;;;;;11.04;100.00;93709.13;2122752;27;19915;-71
2022/08/10 02:40:15;;;;;;;;;;;;;;;10.94;100.00;93706.59;2118615;28;19918;-72
2022/08/10 02:41:28;;;;;;;;;;;;;;;10.95;100.00;93708.88;2121878;27;20265;-70
2022/08/10 02:42:38;;;;;;;;;;;;;;;10.95;100.00;93711.53;2122094;27;20341;-69
2022/08/10 02:43:47;;;;;;;;;;;;;;;10.91;100.00;93708.16;2122622;27;20006;-70
2022/08/10 02:44:53;;;;;;;;;;;;;;;10.89;100.00;93715.06;2118921;28;20300;-71
2022/08/10 02:45:59;;;;;;;;;;;;;;;10.83;100.00;93709.41;2121770;27;19920;-70
2022/08/10 02:47:21;;;;;;;;;;;;;;;10.75;100.00;93711.41;2122478;27;19915;-70
2022/08/10 02:48:23;;;;;;;;;;;;;;;10.71;100.00;93707.25;2119375;28;20272;-70
2022/08/10 02:49:30;;;;;;;;;;;;;;;10.79;100.00;93711.38;2122547;27;19917;-71
2022/08/10 02:50:31;;;;;;;;;;;;;;;10.72;100.00;93711.47;2122592;27;20393;-72
2022/08/10 02:51:38;;;;;;;;;;;;;;;10.75;100.00;93710.66;2121844;27;19919;-70
2022/08/10 02:52:45;;;;;;;;;;;;;;;10.71;100.00;93710.72;2122429;27;19915;-70
2022/08/10 02:53:57;;;;;;;;;;;;;;;10.77;100.00;93703.75;2118793;28;19919;-70
2022/08/10 02:55:09;;;;;;;;;;;;;;;10.84;100.00;93705.56;2122571;27;20524;-70
2022/08/10 02:56:15;;;;;;;;;;;;;;;10.85;100.00;93704.44;2122629;27;19968;-71
2022/08/10 02:57:19;;;;;;;;;;;;;;;10.86;100.00;93705.19;2122100;27;20008;-71
2022/08/10 02:58:43;;;;;;;;;;;;;;;10.89;100.00;93704.34;2122761;27;19915;-71
2022/08/10 02:59:49;;;;;;;;;;;;;;;10.87;100.00;93704.00;2107776;28;19919;-72
2022/08/10 03:00:52;;;;;;;;;;;;;;;10.83;100.00;93701.38;2122667;27;20373;-70
2022/08/10 03:01:54;;;;;;;;;;;;;;;10.89;100.00;93707.03;2122645;27;19915;-71
2022/08/10 03:02:57;;;;;;;;;;;;;;;10.91;100.00;93697.47;2121939;27;19911;-73
2022/08/10 03:04:00;;;;;;;;;;;;;;;10.84;100.00;93706.34;2122438;27;19945;-70
2022/08/10 03:05:06;;;;;;;;;;;;;;;10.80;100.00;93705.63;2122521;27;19919;-73
2022/08/10 03:06:09;;;;;;;;;;;;;;;10.83;100.00;93704.81;2122615;27;19911;-71
2022/08/10 03:07:11;;;;;;;;;;;;;;;10.66;100.00;93697.78;2122498;27;20418;-71
2022/08/10 03:08:14;;;;;;;;;;;;;;;10.77;100.00;93706.44;2120919;28;19971;-71
2022/08/10 03:09:16;;;;;;;;;;;;;;;10.70;100.00;93700.41;2117855;28;19911;-69
2022/08/10 03:10:35;;;;;;;;;;;;;;;10.61;100.00;93697.47;2121655;28;19926;-73
2022/08/10 03:11:36;;;;;;;;;;;;;;;10.67;100.00;93693.97;2122076;28;19911;-73
2022/08/10 03:12:37;;;;;;;;;;;;;;;10.67;100.00;93690.50;2122371;27;19918;-72
2022/08/10 03:13:38;;;;;;;;;;;;;;;10.58;100.00;93689.09;2121779;27;19915;-70
2022/08/10 03:14:40;;;;;;;;;;;;;;;10.62;100.00;93691.72;2122387;27;19915;-70
2022/08/10 03:15:42;;;;;;;;;;;;;;;10.55;100.00;93691.81;2122443;27;19916;-69
2022/08/10 03:16:44;;;;;;;;;;;;;;;10.54;100.00;93690.31;2122448;27;19915;-73
2022/08/10 03:17:45;;;;;;;;;;;;;;;10.53;100.00;93696.78;2118501;28;19918;-70
2022/08/10 03:18:47;;;;;;;;;;;;;;;10.41;100.00;93689.31;2123356;27;19911;-70
2022/08/10 03:19:49;;;;;;;;;;;;;;;10.52;100.00;93693.38;2124086;27;19915;-68
2022/08/10 03:20:51;;;;;;;;;;;;;;;10.43;100.00;93689.66;2124014;27;20013;-71
2022/08/10 03:21:53;;;;;;;;;;;;;;;10.45;100.00;93692.72;2124162;27;19956;-70
2022/08/10 03:22:54;;;;;;;;;;;;;;;10.38;100.00;93696.22;2123898;27;19911;-74
2022/08/10 03:23:57;;;;;;;;;;;;;;;10.34;100.00;93692.81;2123836;27;19915;-70
2022/08/10 03:24:58;;;;;;;;;;;;;;;10.37;100.00;93697.38;2123967;27;19912;-74
2022/08/10 03:26:00;;;;;;;;;;;;;;;10.41;100.00;93697.34;2124108;27;19967;-70
2022/08/10 03:27:02;;;;;;;;;;;;;;;10.35;100.00;93699.69;2123972;27;20774;-70
2022/08/10 03:28:04;;;;;;;;;;;;;;;10.32;100.00;93697.81;2124061;27;20424;-70
2022/08/10 03:29:06;;;;;;;;;;;;;;;10.31;100.00;93698.97;2123234;27;19923;-70
2022/08/10 03:30:08;;;;;;;;;;;;;;;10.32;100.00;93698.56;2122857;27;19915;-74
2022/08/10 03:31:09;;;;;;;;;;;;;;;10.30;100.00;93694.78;2124032;27;20012;-72
2022/08/10 03:32:10;;;;;;;;;;;;;;;10.37;100.00;93702.72;2124005;27;19950;-73
2022/08/10 03:33:12;;;;;;;;;;;;;;;10.28;100.00;93695.19;2123902;27;19911;-70
2022/08/10 03:34:13;;;;;;;;;;;;;;;10.21;100.00;93703.25;2123742;27;20325;-70
2022/08/10 03:35:15;;;;;;;;;;;;;;;10.25;100.00;93701.31;2119007;27;19922;-70
2022/08/10 03:36:16;;;;;;;;;;;;;;;10.20;100.00;93699.06;2124012;27;20320;-70
2022/08/10 03:37:17;;;;;;;;;;;;;;;10.26;100.00;93694.06;2123837;27;19915;-70
2022/08/10 03:38:17;;;;;;;;;;;;;;;10.44;100.00;93691.19;2123985;27;20241;-70
2022/08/10 03:39:18;;;;;;;;;;;;;;;10.30;100.00;93689.44;2123783;27;19925;-73
2022/08/10 03:40:19;;;;;;;;;;;;;;;10.21;100.00;93697.13;2123054;27;20013;-72
2022/08/10 03:41:28;;;;;;;;;;;;;;;10.23;100.00;93694.84;2124003;27;19960;-70
2022/08/10 03:42:30;;;;;;;;;;;;;;;10.18;100.00;93695.25;2123926;27;19951;-70
2022/08/10 03:43:32;;;;;;;;;;;;;;;10.21;100.00;93689.88;2123868;27;19918;-70
2022/08/10 03:44:34;;;;;;;;;;;;;;;10.24;100.00;93691.78;2123785;27;19921;-70
2022/08/10 03:45:36;;;;;;;;;;;;;;;10.37;100.00;93685.94;2120419;27;19926;-71
2022/08/10 03:46:39;;;;;;;;;;;;;;;10.22;100.00;93691.38;2122830;27;19918;-73
2022/08/10 03:47:41;;;;;;;;;;;;;;;10.27;100.00;93691.00;2123853;27;20384;-69
2022/08/10 03:48:43;;;;;;;;;;;;;;;10.16;100.00;93687.66;2123854;27;19945;-70
2022/08/10 03:49:46;;;;;;;;;;;;;;;10.20;100.00;93687.63;2119603;27;19922;-71
2022/08/10 03:50:48;;;;;;;;;;;;;;;10.20;100.00;93693.72;2122189;27;20348;-70
2022/08/10 03:51:50;;;;;;;;;;;;;;;10.26;100.00;93689.47;2123158;27;20296;-70
2022/08/10 03:52:51;;;;;;;;;;;;;;;10.22;100.00;93698.66;2123918;27;20018;-72
2022/08/10 03:53:52;;;;;;;;;;;;;;;10.22;100.00;93687.97;2123787;27;19958;-71
2022/08/10 03:54:54;;;;;;;;;;;;;;;10.13;100.00;93693.03;2123609;27;19915;-71
2022/08/10 03:55:55;;;;;;;;;;;;;;;10.24;100.00;93696.34;2122983;27;20353;-73
2022/08/10 03:56:56;;;;;;;;;;;;;;;10.14;100.00;93694.53;2123713;27;19918;-70
2022/08/10 03:57:57;;;;;;;;;;;;;;;10.06;100.00;93694.63;2123748;27;19915;-72
2022/08/10 03:58:58;;;;;;;;;;;;;;;10.14;100.00;93691.88;2123617;27;20269;-71
2022/08/10 03:59:59;;;;;;;;;;;;;;;10.17;100.00;93689.16;2123589;27;19978;-72
2022/08/10 04:01:00;;;;;;;;;;;;;;;10.17;100.00;93688.41;2121830;27;20397;-71
2022/08/10 04:02:02;;;;;;;;;;;;;;;10.02;100.00;93688.56;2121777;27;20403;-70
2022/08/10 04:03:03;;;;;;;;;;;;;;;10.05;100.00;93692.34;2123786;27;19923;-72
2022/08/10 04:04:04;;;;;;;;;;;;;;;10.08;100.00;93691.56;2123781;27;19930;-72
2022/08/10 04:05:05;;;;;;;;;;;;;;;10.08;100.00;93696.91;2123385;27;20372;-71
2022/08/10 04:06:06;;;;;;;;;;;;;;;10.06;100.00;93697.31;2122998;27;19963;-70
2022/08/10 04:07:07;;;;;;;;;;;;;;;10.07;100.00;93700.72;2123725;27;20305;-70
2022/08/10 04:08:08;;;;;;;;;;;;;;;10.03;100.00;93695.41;2123648;27;20002;-70
2022/08/10 04:09:09;;;;;;;;;;;;;;;10.00;100.00;93695.44;2123058;27;20736;-70
2022/08/10 04:10:10;;;;;;;;;;;;;;;9.95;100.00;93703.91;2123491;27;19922;-70
2022/08/10 04:11:11;;;;;;;;;;;;;;;9.81;100.00;93699.47;2123565;27;20330;-70
2022/08/10 04:12:12;;;;;;;;;;;;;;;9.93;100.00;93696.28;2123292;27;19911;-71
2022/08/10 04:13:13;;;;;;;;;;;;;;;9.91;100.00;93708.50;2123665;27;20401;-70
2022/08/10 04:14:13;;;;;;;;;;;;;;;9.88;100.00;93707.41;2123202;27;20728;-70
2022/08/10 04:15:14;;;;;;;;;;;;;;;9.86;100.00;93704.38;2123406;27;20276;-70
2022/08/10 04:16:15;;;;;;;;;;;;;;;9.88;100.00;93703.97;2122879;27;19934;-70
2022/08/10 04:17:16;;;;;;;;;;;;;;;9.88;100.00;93703.97;2122215;27;20049;-73
2022/08/10 04:18:16;;;;;;;;;;;;;;;9.93;100.00;93695.53;2123676;27;19915;-70
2022/08/10 04:19:18;;;;;;;;;;;;;;;9.77;100.00;93706.75;2123688;27;19911;-70
2022/08/10 04:20:39;;;;;;;;;;;;;;;9.81;100.00;93702.88;2123359;27;19915;-70
2022/08/10 04:21:42;;;;;;;;;;;;;;;9.90;100.00;93705.09;2122847;27;20253;-70
2022/08/10 04:22:47;;;;;;;;;;;;;;;9.90;100.00;93707.00;2119412;27;19916;-70
2022/08/10 04:23:49;;;;;;;;;;;;;;;9.93;100.00;93704.31;2122914;27;19976;-72
2022/08/10 04:24:54;;;;;;;;;;;;;;;9.92;100.00;93710.03;2122916;27;19957;-70
2022/08/10 04:25:55;;;;;;;;;;;;;;;9.89;100.00;93708.16;2123549;27;19998;-69
2022/08/10 04:26:56;;;;;;;;;;;;;;;9.90;100.00;93712.34;2123421;27;19911;-71
2022/08/10 04:27:57;;;;;;;;;;;;;;;9.87;100.00;93707.78;2122771;27;20349;-70
2022/08/10 04:28:58;;;;;;;;;;;;;;;9.87;100.00;93707.78;2123339;27;19912;-73
2022/08/10 04:29:59;;;;;;;;;;;;;;;9.74;100.00;93710.19;2123444;27;20003;-70
2022/08/10 04:31:00;;;;;;;;;;;;;;;9.81;100.00;93710.88;2123388;27;20001;-71
2022/08/10 04:32:02;;;;;;;;;;;;;;;9.85;100.00;93716.19;2123514;27;19936;-72
2022/08/10 04:33:04;;;;;;;;;;;;;;;9.91;100.00;93714.59;2122827;27;20546;-70
2022/08/10 04:34:05;;;;;;;;;;;;;;;9.91;100.00;93711.19;2123446;27;19946;-70
2022/08/10 04:35:09;;;;;;;;;;;;;;;9.88;100.00;93718.09;2123322;27;20010;-73
2022/08/10 04:36:11;;;;;;;;;;;;;;;9.96;100.00;93716.84;2123456;27;19981;-71
2022/08/10 04:37:12;;;;;;;;;;;;;;;9.95;100.00;93717.25;2123440;27;19926;-70
2022/08/10 04:38:14;;;;;;;;;;;;;;;9.95;100.00;93717.25;2119120;27;19912;-70
2022/08/10 04:39:15;;;;;;;;;;;;;;;9.86;100.00;93715.03;2119313;27;20002;-70
2022/08/10 04:40:17;;;;;;;;;;;;;;;9.97;100.00;93714.97;2123342;27;19918;-70
2022/08/10 04:41:18;;;;;;;;;;;;;;;9.92;100.00;93715.38;2123383;27;19922;-72
2022/08/10 04:42:18;;;;;;;;;;;;;;;9.96;100.00;93722.19;2123394;27;19926;-70
2022/08/10 04:43:19;;;;;;;;;;;;;;;10.01;100.00;93718.34;2123241;27;20417;-70
2022/08/10 04:44:20;;;;;;;;;;;;;;;10.00;100.00;93722.91;2122885;27;19912;-70
2022/08/10 04:45:21;;;;;;;;;;;;;;;10.04;100.00;93726.31;2123465;27;20386;-70
2022/08/10 04:46:22;;;;;;;;;;;;;;;10.08;100.00;93712.91;2123016;27;19911;-70
2022/08/10 04:47:23;;;;;;;;;;;;;;;10.06;100.00;93718.66;2123252;27;20253;-71
2022/08/10 04:48:24;;;;;;;;;;;;;;;10.02;100.00;93714.53;2122573;27;19912;-72
2022/08/10 04:49:25;;;;;;;;;;;;;;;10.06;100.00;93720.59;2121540;27;19915;-70
2022/08/10 04:50:26;;;;;;;;;;;;;;;10.18;100.00;93714.72;2123374;27;19916;-70
2022/08/10 04:51:27;;;;;;;;;;;;;;;10.28;100.00;93721.91;2123131;27;19918;-70
2022/08/10 04:52:28;;;;;;;;;;;;;;;10.28;100.00;93718.47;2123454;27;19970;-70
2022/08/10 04:53:28;;;;;;;;;;;;;;;10.31;100.00;93720.34;2123327;27;19922;-71
2022/08/10 04:54:29;;;;;;;;;;;;;;;10.22;100.00;93714.69;2122733;27;19962;-70
2022/08/10 04:55:30;;;;;;;;;;;;;;;10.22;100.00;93720.03;2119466;27;19912;-70
2022/08/10 04:56:31;;;;;;;;;;;;;;;10.28;100.00;93719.22;2111714;28;19960;-70
2022/08/10 04:57:32;;;;;;;;;;;;;;;10.28;100.00;93718.47;2120950;27;19915;-70
2022/08/10 04:58:33;;;;;;;;;;;;;;;10.32;100.00;93711.94;2122126;27;20060;-70
2022/08/10 04:59:34;;;;;;;;;;;;;;;10.31;100.00;93718.41;2122294;27;19954;-70
2022/08/10 05:00:35;;;;;;;;;;;;;;;10.32;100.00;93716.53;2121443;27;19923;-71
2022/08/10 05:01:36;;;;;;;;;;;;;;;10.26;100.00;93726.88;2121177;27;19992;-72
2022/08/10 05:02:37;;;;;;;;;;;;;;;10.33;100.00;93726.81;2122331;27;20396;-71
2022/08/10 05:03:38;;;;;;;;;;;;;;;10.37;100.00;93720.69;2120634;27;19923;-70
2022/08/10 05:04:39;;;;;;;;;;;;;;;10.42;100.00;93733.59;2118470;27;20361;-70
2022/08/10 05:05:39;;;;;;;;;;;;;;;10.50;100.00;93721.66;2120887;27;19911;-70
2022/08/10 05:06:40;;;;;;;;;;;;;;;10.55;100.00;93727.31;2121529;27;19916;-70
2022/08/10 05:07:41;;;;;;;;;;;;;;;10.56;100.00;93720.81;2123019;27;19972;-71
2022/08/10 05:08:42;;;;;;;;;;;;;;;10.49;100.00;93726.25;2121189;27;19918;-70
2022/08/10 05:09:43;;;;;;;;;;;;;;;10.51;100.00;93728.53;2120028;27;19922;-70
2022/08/10 05:10:45;;;;;;;;;;;;;;;10.56;100.00;93725.41;2123138;27;19915;-73
2022/08/10 05:11:46;;;;;;;;;;;;;;;10.50;100.00;93730.44;2118490;27;20378;-70
2022/08/10 05:12:47;;;;;;;;;;;;;;;10.61;100.00;93732.22;2122453;27;19915;-70
2022/08/10 05:13:47;;;;;;;;;;;;;;;10.67;100.00;93733.28;2122385;27;19957;-73
2022/08/10 05:14:50;;;;;;;;;;;;;;;10.71;100.00;93731.31;2119127;27;20101;-70
2022/08/10 05:15:52;;;;;;;;;;;;;;;10.76;100.00;93730.91;2122954;27;20253;-70
2022/08/10 05:16:53;;;;;;;;;;;;;;;10.76;100.00;93731.66;2122693;27;19994;-71
2022/08/10 05:17:53;;;;;;;;;;;;;;;10.78;100.00;93734.69;2121934;27;20639;-72
2022/08/10 05:18:54;;;;;;;;;;;;;;;10.82;100.00;93731.97;2122432;27;19973;-70
2022/08/10 05:19:55;;;;;;;;;;;;;;;10.85;100.00;93736.53;2122233;27;19918;-70
2022/08/10 05:20:56;;;;;;;;;;;;;;;10.83;100.00;93728.13;2122910;27;19911;-71
2022/08/10 05:21:56;;;;;;;;;;;;;;;10.99;100.00;93730.97;2122846;27;19958;-72
2022/08/10 05:22:57;;;;;;;;;;;;;;;11.13;100.00;93730.03;2120243;27;19920;-71
2022/08/10 05:24:03;;;;;;;;;;;;;;;11.15;100.00;93735.75;2121947;27;20007;-71
2022/08/10 05:25:05;;;;;;;;;;;;;;;11.21;100.00;93728.75;2122149;27;20335;-71
2022/08/10 05:26:05;;;;;;;;;;;;;;;11.26;100.00;93722.19;2120265;27;19967;-70
2022/08/10 05:27:07;;;;;;;;;;;;;;;11.32;100.00;93725.91;2119661;27;19912;-71